Time;durP1;ratioP1;P1;durP2;ratioP2;P2;SDS_P1;SDS_P2;PMS_P1;PMS_P2;Temp;Humidity;BMP_temperature;BMP_pressure;BME280_temperature;BME280_humidity;BME280_pressure;Samples;Min_cycle;Max_cycle;Signal;HPM_P1;HPM_P2
2020/12/03 00:01:14;;;;;;;337.68;121.05;;;;;;;-9.27;66.67;97271.70;1790099;78;25687;-79
2020/12/03 00:03:55;;;;;;;311.73;109.20;;;;;;;-9.28;66.62;97265.63;1790211;78;25717;-78
2020/12/03 00:06:36;;;;;;;308.95;109.05;;;;;;;-9.31;66.58;97261.91;1790324;78;25779;-81
2020/12/03 00:09:11;;;;;;;308.30;105.43;;;;;;;-9.36;66.51;97253.50;1789345;78;25734;-79
2020/12/03 00:11:46;;;;;;;363.32;119.75;;;;;;;-9.38;66.56;97244.91;1790107;78;27498;-80
2020/12/03 00:14:14;;;;;;;342.52;116.37;;;;;;;-9.40;66.56;97247.23;1790176;78;26338;-81
2020/12/03 00:16:42;;;;;;;348.70;118.60;;;;;;;-9.47;66.47;97262.45;1790199;78;25625;-79
2020/12/03 00:19:12;;;;;;;321.70;111.32;;;;;;;-9.47;66.61;97261.15;1822729;78;25779;-78
2020/12/03 00:21:53;;;;;;;323.77;110.15;;;;;;;-9.49;66.68;97252.55;1822327;78;25762;-79
2020/12/03 00:24:25;;;;;;;299.85;101.22;;;;;;;-9.61;66.63;97248.06;1790117;78;27543;-81
2020/12/03 00:26:52;;;;;;;321.87;116.85;;;;;;;-9.68;66.80;97250.22;1790281;78;25661;-82
2020/12/03 00:29:21;;;;;;;279.70;96.78;;;;;;;-9.67;66.94;97241.91;1801436;78;25692;-79
2020/12/03 00:31:51;;;;;;;268.57;96.12;;;;;;;-9.65;67.04;97241.33;1790114;78;26067;-78
2020/12/03 00:34:18;;;;;;;267.02;94.62;;;;;;;-9.58;67.15;97237.44;1798267;78;25770;-79
2020/12/03 00:36:46;;;;;;;276.35;101.30;;;;;;;-9.57;67.03;97235.20;1822556;78;28462;-78
2020/12/03 00:39:16;;;;;;;238.68;86.17;;;;;;;-9.62;67.00;97229.40;1793870;78;25683;-78
2020/12/03 00:41:51;;;;;;;248.47;91.08;;;;;;;-9.65;67.08;97240.02;1790107;78;25728;-80
2020/12/03 00:44:19;;;;;;;262.60;92.35;;;;;;;-9.61;67.08;97238.92;1790654;78;26308;-81
2020/12/03 00:46:47;;;;;;;240.85;89.67;;;;;;;-9.59;67.01;97230.53;1817018;78;26522;-79
2020/12/03 00:49:17;;;;;;;241.30;88.47;;;;;;;-9.62;66.95;97226.78;1807396;75;28469;-78
2020/12/03 00:51:50;;;;;;;220.33;77.12;;;;;;;-9.60;66.96;97215.31;1801261;78;26176;-78
2020/12/03 00:54:18;;;;;;;232.75;85.03;;;;;;;-9.59;66.99;97219.61;1801376;75;26010;-78
2020/12/03 00:56:48;;;;;;;234.87;85.53;;;;;;;-9.58;67.05;97212.62;1811332;75;25756;-79
2020/12/03 00:59:15;;;;;;;238.55;88.15;;;;;;;-9.66;67.06;97220.09;1823988;77;25714;-78
2020/12/03 01:01:44;;;;;;;261.77;94.47;;;;;;;-9.67;67.04;97211.87;1801318;78;27468;-79
2020/12/03 01:04:11;;;;;;;271.05;96.65;;;;;;;-9.61;67.17;97205.80;1817799;75;25502;-79
2020/12/03 01:06:38;;;;;;;272.80;100.07;;;;;;;-9.55;67.22;97205.44;1825866;75;26231;-78
2020/12/03 01:09:06;;;;;;;260.27;95.65;;;;;;;-9.53;67.20;97201.41;1825260;75;26172;-81
2020/12/03 01:11:33;;;;;;;243.93;90.90;;;;;;;-9.54;67.30;97194.52;1804225;75;25699;-80
2020/12/03 01:14:00;;;;;;;228.20;82.47;;;;;;;-9.56;67.37;97192.00;1817743;75;27477;-79
2020/12/03 01:16:28;;;;;;;217.72;81.92;;;;;;;-9.52;67.42;97191.33;1814002;78;25879;-79
2020/12/03 01:18:55;;;;;;;205.12;73.87;;;;;;;-9.51;67.50;97189.92;1806885;75;25735;-80
2020/12/03 01:21:23;;;;;;;229.15;86.32;;;;;;;-9.46;67.63;97181.82;1830646;75;25777;-78
2020/12/03 01:23:51;;;;;;;254.97;92.50;;;;;;;-9.43;67.46;97171.66;1827757;75;25277;-79
2020/12/03 01:26:20;;;;;;;263.43;94.67;;;;;;;-9.43;67.26;97165.95;1814963;78;28455;-83
2020/12/03 01:28:49;;;;;;;248.15;94.67;;;;;;;-9.48;67.15;97166.23;1821802;75;25755;-79
2020/12/03 01:31:16;;;;;;;235.17;87.17;;;;;;;-9.55;67.19;97164.10;1820837;78;25717;-80
2020/12/03 01:33:44;;;;;;;250.30;86.30;;;;;;;-9.54;67.23;97172.31;1825013;75;25738;-79
2020/12/03 01:36:14;;;;;;;201.47;75.12;;;;;;;-9.53;67.34;97164.81;1834296;75;25750;-80
2020/12/03 01:38:44;;;;;;;206.63;70.08;;;;;;;-9.50;67.47;97163.33;1812371;75;27659;-79
2020/12/03 01:41:12;;;;;;;209.07;72.37;;;;;;;-9.48;67.50;97157.55;1801167;78;25751;-79
2020/12/03 01:43:44;;;;;;;198.68;67.90;;;;;;;-9.48;67.46;97156.24;1801429;78;25685;-80
2020/12/03 01:46:11;;;;;;;187.53;63.45;;;;;;;-9.45;67.49;97153.45;1816333;75;26162;-79
2020/12/03 01:48:47;;;;;;;169.02;61.08;;;;;;;-9.43;67.50;97146.36;1790143;78;25802;-79
2020/12/03 01:51:22;;;;;;;154.80;57.75;;;;;;;-9.44;67.56;97151.20;1797339;78;27574;-79
2020/12/03 01:53:48;;;;;;;150.47;55.78;;;;;;;-9.42;67.58;97147.20;1822333;78;26100;-79
2020/12/03 01:57:07;;;;;;;146.45;53.50;;;;;;;-9.45;67.45;97144.30;1822452;78;25718;-79
2020/12/03 01:59:38;;;;;;;142.00;51.18;;;;;;;-9.56;67.48;97133.67;1794670;78;25718;-79
2020/12/03 02:02:09;;;;;;;150.40;57.17;;;;;;;-9.65;67.56;97136.83;1789742;78;25718;-80
2020/12/03 02:04:37;;;;;;;158.00;62.50;;;;;;;-9.70;67.58;97137.13;1813135;77;27481;-79
2020/12/03 02:07:11;;;;;;;182.57;66.53;;;;;;;-9.73;67.78;97130.78;1790157;78;25779;-79
2020/12/03 02:09:39;;;;;;;165.30;62.15;;;;;;;-9.70;67.95;97121.92;1816174;78;25759;-79
2020/12/03 02:12:07;;;;;;;166.43;61.92;;;;;;;-9.64;67.99;97118.92;1809055;78;26264;-80
2020/12/03 02:14:34;;;;;;;149.38;52.48;;;;;;;-9.64;67.98;97103.24;1812863;78;25758;-79
2020/12/03 02:17:02;;;;;;;127.70;50.35;;;;;;;-9.67;68.01;97099.54;1790075;78;27488;-80
2020/12/03 02:19:32;;;;;;;139.52;52.65;;;;;;;-9.66;68.08;97103.83;1804803;78;26075;-79
2020/12/03 02:22:05;;;;;;;144.22;53.15;;;;;;;-9.66;68.10;97101.22;1799731;78;25827;-80
2020/12/03 02:24:42;;;;;;;149.53;56.85;;;;;;;-9.62;68.19;97100.08;1821954;78;25714;-79
2020/12/03 02:27:13;;;;;;;146.22;55.55;;;;;;;-9.54;68.25;97094.73;1799611;78;25743;-79
2020/12/03 02:29:41;;;;;;;112.45;48.00;;;;;;;-9.48;68.20;97080.46;1808102;78;27475;-81
2020/12/03 02:32:09;;;;;;;174.45;62.98;;;;;;;-9.49;68.06;97074.86;1789908;78;26172;-79
2020/12/03 02:34:36;;;;;;;146.77;56.48;;;;;;;-9.52;67.96;97073.27;1790083;78;25712;-81
2020/12/03 02:37:05;;;;;;;166.77;60.88;;;;;;;-9.54;67.93;97082.98;1790121;78;26211;-79
2020/12/03 02:39:35;;;;;;;143.60;56.05;;;;;;;-9.51;67.93;97079.34;1795836;78;25811;-79
2020/12/03 02:42:07;;;;;;;154.95;58.98;;;;;;;-9.51;67.90;97081.95;1797895;78;28813;-81
2020/12/03 02:44:42;;;;;;;142.00;55.70;;;;;;;-9.48;67.92;97082.61;1800935;78;25674;-79
2020/12/03 02:47:12;;;;;;;148.82;55.80;;;;;;;-9.46;67.91;97090.35;1751708;75;25764;-84
2020/12/03 02:49:41;;;;;;;139.50;54.08;;;;;;;-9.46;67.94;97108.64;1748992;81;26236;-83
2020/12/03 02:52:15;;;;;;;156.40;56.83;;;;;;;-9.48;67.97;97102.67;1749028;81;25819;-83
2020/12/03 02:54:43;;;;;;;158.80;59.13;;;;;;;-9.47;67.92;97105.66;1748978;81;28474;-82
2020/12/03 02:57:11;;;;;;;151.15;54.50;;;;;;;-9.47;67.89;97107.80;1748827;81;25748;-85
2020/12/03 02:59:40;;;;;;;139.88;56.50;;;;;;;-9.47;67.98;97107.80;1748969;81;25774;-83
2020/12/03 03:02:07;;;;;;;133.10;46.55;;;;;;;-9.45;67.93;97094.65;1749065;80;25819;-83
2020/12/03 03:04:35;;;;;;;131.05;50.78;;;;;;;-9.42;68.01;97108.84;1748958;81;25802;-84
2020/12/03 03:07:04;;;;;;;126.87;46.98;;;;;;;-9.38;68.12;97095.92;1748861;81;28376;-83
2020/12/03 03:09:31;;;;;;;110.72;41.00;;;;;;;-9.34;68.15;97092.66;1748892;81;25716;-83
2020/12/03 03:11:58;;;;;;;125.12;43.05;;;;;;;-9.37;68.17;97096.77;1748940;81;25886;-83
2020/12/03 03:14:26;;;;;;;116.33;44.65;;;;;;;-9.39;68.31;97101.25;1748930;81;26354;-83
2020/12/03 03:16:53;;;;;;;115.03;42.88;;;;;;;-9.33;68.31;97100.41;1749019;81;25795;-83
2020/12/03 03:19:21;;;;;;;117.47;43.48;;;;;;;-9.30;68.29;97107.22;1748987;81;27555;-82
2020/12/03 03:21:48;;;;;;;111.47;42.75;;;;;;;-9.27;68.37;97103.92;1749037;80;25767;-83
2020/12/03 03:24:15;;;;;;;115.62;41.13;;;;;;;-9.23;68.45;97089.73;1748967;81;25828;-83
2020/12/03 03:26:43;;;;;;;103.27;39.30;;;;;;;-9.16;68.50;97083.16;1748960;81;25745;-84
2020/12/03 03:29:12;;;;;;;119.25;43.17;;;;;;;-9.11;68.59;97082.41;1749117;81;25802;-84
2020/12/03 03:31:40;;;;;;;102.25;39.85;;;;;;;-9.08;68.57;97079.23;1749019;81;27570;-84
2020/12/03 03:34:08;;;;;;;102.92;41.15;;;;;;;-9.19;68.56;97071.62;1749179;81;25866;-82
2020/12/03 03:36:36;;;;;;;104.90;37.05;;;;;;;-9.26;68.75;97084.69;1749213;81;25767;-82
2020/12/03 03:39:06;;;;;;;86.97;36.10;;;;;;;-9.28;68.81;97068.27;1749104;81;25520;-82
2020/12/03 03:41:35;;;;;;;95.83;37.70;;;;;;;-9.24;68.75;97068.45;1749171;81;25800;-84
2020/12/03 03:44:02;;;;;;;93.82;37.88;;;;;;;-9.22;68.68;97063.12;1749221;81;28459;-83
2020/12/03 03:46:29;;;;;;;86.67;35.50;;;;;;;-9.19;68.76;97062.94;1741290;81;25938;-82
2020/12/03 03:48:57;;;;;;;87.50;34.53;;;;;;;-9.17;68.68;97071.02;1720388;82;25742;-82
2020/12/03 03:51:24;;;;;;;87.97;36.40;;;;;;;-9.18;68.74;97073.30;1720393;82;25725;-84
2020/12/03 03:53:51;;;;;;;93.82;36.65;;;;;;;-9.17;68.74;97064.48;1722627;80;25780;-82
2020/12/03 03:56:19;;;;;;;95.38;38.10;;;;;;;-9.13;68.76;97067.28;1755194;80;28728;-84
2020/12/03 03:58:46;;;;;;;107.40;40.43;;;;;;;-9.08;68.78;97059.63;1756629;80;26361;-82
2020/12/03 04:01:14;;;;;;;97.80;40.52;;;;;;;-9.16;68.62;97047.86;1721246;80;25883;-83
2020/12/03 04:03:41;;;;;;;95.80;39.00;;;;;;;-9.22;68.66;97045.66;1720372;82;26465;-82
2020/12/03 04:06:08;;;;;;;96.15;38.30;;;;;;;-9.29;68.63;97043.05;1720317;82;25791;-83
2020/12/03 04:08:36;;;;;;;87.47;34.58;;;;;;;-9.30;68.78;97042.72;1720048;82;27563;-83
2020/12/03 04:11:03;;;;;;;91.35;34.67;;;;;;;-9.24;68.95;97043.61;1726753;80;25744;-83
2020/12/03 04:13:30;;;;;;;93.60;37.53;;;;;;;-9.14;69.08;97045.16;1750777;80;25801;-82
2020/12/03 04:15:58;;;;;;;91.57;36.08;;;;;;;-9.11;68.97;97051.50;1720172;82;25799;-83
2020/12/03 04:18:27;;;;;;;94.80;38.40;;;;;;;-9.18;68.75;97041.92;1739489;80;25768;-83
2020/12/03 04:20:58;;;;;;;87.40;35.43;;;;;;;-9.25;68.77;97045.85;1737611;80;27484;-82
2020/12/03 04:23:26;;;;;;;83.33;33.93;;;;;;;-9.25;68.83;97044.55;1720009;82;25852;-83
2020/12/03 04:25:53;;;;;;;92.45;34.33;;;;;;;-9.18;68.93;97032.77;1720276;82;25272;-82
2020/12/03 04:28:20;;;;;;;84.65;34.98;;;;;;;-9.13;68.96;97029.84;1720186;82;25861;-82
2020/12/03 04:30:48;;;;;;;81.20;33.13;;;;;;;-9.11;68.97;97024.89;1720304;82;25724;-83
2020/12/03 04:33:15;;;;;;;88.05;34.73;;;;;;;-9.06;69.10;97028.98;1720207;82;28468;-84
2020/12/03 04:35:43;;;;;;;97.20;37.75;;;;;;;-9.03;69.14;97026.15;1720141;82;25833;-83
2020/12/03 04:38:11;;;;;;;133.20;48.48;;;;;;;-9.06;69.04;97020.67;1720208;82;26060;-82
2020/12/03 04:40:41;;;;;;;164.50;57.13;;;;;;;-9.02;69.12;97018.20;1720255;82;25889;-82
2020/12/03 04:43:36;;;;;;;168.95;57.62;;;;;;;-8.97;69.20;97017.92;1720303;82;25798;-82
2020/12/03 04:46:34;;;;;;;159.87;55.58;;;;;;;-8.92;69.26;97010.12;1720251;82;27558;-83
2020/12/03 04:49:34;;;;;;;138.82;52.78;;;;;;;-8.87;69.29;97003.28;1739379;80;25723;-82
2020/12/03 04:52:34;;;;;;;154.78;51.35;;;;;;;-8.88;69.21;96997.69;1736138;80;26549;-82
2020/12/03 04:55:56;;;;;;;147.50;51.58;;;;;;;-8.88;69.36;96991.98;1735337;80;25754;-82
2020/12/03 04:58:39;;;;;;;;;;;;;;;-8.79;69.37;96980.05;1722919;82;25836;-81
2020/12/03 05:01:21;;;;;;;144.70;48.58;;;;;;;-8.80;69.39;96986.23;1704865;82;27550;-83
2020/12/03 05:04:14;;;;;;;174.62;56.37;;;;;;;-8.79;69.45;96980.05;1720259;82;31377;-82
2020/12/03 05:07:04;;;;;;;164.62;56.70;;;;;;;-8.74;69.46;96974.05;1691876;83;25769;-83
2020/12/03 05:10:06;;;;;;;163.57;56.88;;;;;;;-8.72;69.39;96978.72;1720136;82;26450;-85
2020/12/03 05:12:41;;;;;;;170.95;56.60;;;;;;;-8.68;69.40;96974.94;1720210;82;25706;-83
2020/12/03 05:15:19;;;;;;;164.70;51.37;;;;;;;-8.68;69.31;96972.32;1691962;83;27515;-83
2020/12/03 05:18:04;;;;;;;161.12;51.33;;;;;;;-8.64;69.33;96970.34;1720082;82;25754;-84
2020/12/03 05:20:53;;;;;;;192.47;56.48;;;;;;;-8.64;69.33;96963.33;1717826;82;25789;-84
2020/12/03 05:23:29;;;;;;;202.22;59.38;;;;;;;-8.62;69.31;96962.77;1720285;82;26369;-84
2020/12/03 05:25:57;;;;;;;174.45;55.50;;;;;;;-8.57;69.32;96960.65;1720185;82;25829;-83
2020/12/03 05:28:35;;;;;;;195.28;60.63;;;;;;;-8.53;69.39;96956.89;1720154;82;28388;-83
2020/12/03 05:31:20;;;;;;;171.85;60.92;;;;;;;-8.47;69.37;96956.95;1720128;82;25777;-82
2020/12/03 05:33:47;;;;;;;178.82;61.48;;;;;;;-8.46;69.30;96957.32;1717850;82;25837;-84
2020/12/03 05:36:26;;;;;;;175.85;62.17;;;;;;;-8.48;69.25;96953.50;1746760;80;26839;-82
2020/12/03 05:38:54;;;;;;;160.20;59.53;;;;;;;-8.42;69.31;96954.84;1719507;82;25714;-85
2020/12/03 05:41:24;;;;;;;155.87;57.60;;;;;;;-8.38;69.35;96965.00;1736163;80;27577;-84
2020/12/03 05:43:51;;;;;;;164.65;59.80;;;;;;;-8.37;69.41;96956.20;1737374;82;26406;-81
2020/12/03 05:46:22;;;;;;;166.28;61.35;;;;;;;-8.43;69.32;96969.70;1737424;80;25891;-82
2020/12/03 05:49:03;;;;;;;153.35;58.42;;;;;;;-8.37;69.45;96971.91;1716848;81;26519;-83
2020/12/03 05:51:34;;;;;;;154.90;58.77;;;;;;;-8.31;69.51;96964.56;1748738;80;25755;-83
2020/12/03 05:54:08;;;;;;;144.60;53.33;;;;;;;-8.25;69.60;96957.57;1747926;80;27535;-82
2020/12/03 05:56:35;;;;;;;133.10;50.28;;;;;;;-8.20;69.68;96956.77;1743662;81;25800;-82
2020/12/03 05:59:16;;;;;;;131.30;49.05;;;;;;;-8.16;69.70;96950.38;1743713;81;25709;-84
2020/12/03 06:02:09;;;;;;;144.97;54.53;;;;;;;-8.12;69.79;96942.20;1733617;81;26358;-83
2020/12/03 06:04:54;;;;;;;166.55;56.80;;;;;;;-8.09;69.79;96935.92;1740521;81;25869;-82
2020/12/03 06:07:35;;;;;;;156.50;62.67;;;;;;;-8.09;69.75;96932.00;1674056;84;27503;-81
2020/12/03 06:10:25;;;;;;;150.80;56.18;;;;;;;-8.10;69.79;96927.70;1743711;81;26160;-82
2020/12/03 06:12:57;;;;;;;287.00;107.12;;;;;;;-8.13;69.81;96930.53;1750361;80;25757;-83
2020/12/03 06:15:54;;;;;;;295.55;111.47;;;;;;;-8.08;69.96;96933.17;1762742;80;25775;-82
2020/12/03 06:18:54;;;;;;;252.70;95.03;;;;;;;-8.04;70.03;96925.94;1743702;81;26106;-83
2020/12/03 06:21:36;;;;;;;289.38;110.65;;;;;;;-7.98;70.09;96922.90;1743739;81;28464;-82
2020/12/03 06:24:33;;;;;;;263.12;98.35;;;;;;;-8.00;70.15;96916.93;1743911;81;25793;-81
2020/12/03 06:27:30;;;;;;;223.07;82.30;;;;;;;-7.92;70.27;96914.59;1743707;81;25748;-81
2020/12/03 06:30:25;;;;;;;197.55;76.37;;;;;;;-7.86;70.24;96919.41;1726146;81;26458;-82
2020/12/03 06:33:03;;;;;;;171.32;66.80;;;;;;;-7.79;70.23;96911.92;1743818;80;25851;-82
2020/12/03 06:35:48;;;;;;;161.85;64.20;;;;;;;-7.76;70.23;96922.19;1759251;80;26410;-82
2020/12/03 06:38:48;;;;;;;166.15;63.05;;;;;;;-7.69;70.24;96922.94;1750650;80;26102;-82
2020/12/03 06:41:44;;;;;;;171.80;63.10;;;;;;;-7.62;70.21;96922.50;1743146;81;25759;-83
2020/12/03 06:44:25;;;;;;;185.30;65.45;;;;;;;-7.59;70.26;96913.09;1743837;81;25511;-82
2020/12/03 06:47:37;;;;;;;178.68;70.37;;;;;;;-7.53;70.28;96907.41;1743789;81;25736;-82
2020/12/03 06:50:19;;;;;;;155.22;51.60;;;;;;;-7.51;70.25;96901.11;1743839;81;27478;-82
2020/12/03 06:53:06;;;;;;;142.20;53.75;;;;;;;-7.45;70.26;96884.08;1743839;81;26310;-82
2020/12/03 06:56:10;;;;;;;188.97;71.77;;;;;;;-7.50;70.26;96874.42;1743763;81;25822;-81
2020/12/03 06:59:20;;;;;;;204.25;76.42;;;;;;;-7.52;70.29;96867.98;1743784;81;26530;-82
2020/12/03 07:02:04;;;;;;;208.50;80.03;;;;;;;-7.48;70.47;96875.13;1743741;81;25957;-81
2020/12/03 07:04:57;;;;;;;221.53;80.38;;;;;;;-7.38;70.57;96874.83;1748346;80;27499;-82
2020/12/03 07:07:56;;;;;;;239.95;87.47;;;;;;;-7.31;70.64;96881.27;1748528;80;26108;-83
2020/12/03 07:10:40;;;;;;;240.43;88.33;;;;;;;-7.31;70.46;96864.23;1748739;80;25794;-81
2020/12/03 07:13:42;;;;;;;224.47;88.45;;;;;;;-7.29;70.51;96872.82;1748062;80;26653;-82
2020/12/03 07:16:50;;;;;;;181.28;71.22;;;;;;;-7.27;70.57;96870.92;1747795;80;25783;-83
2020/12/03 07:19:50;;;;;;;227.40;88.62;;;;;;;-7.28;70.56;96873.19;1748789;80;27489;-81
2020/12/03 07:22:35;;;;;;;241.27;94.10;;;;;;;-7.22;70.64;96881.89;1748689;81;26334;-81
2020/12/03 07:25:04;;;;;;;242.10;90.85;;;;;;;-7.14;70.72;96870.37;1748599;80;25730;-82
2020/12/03 07:28:14;;;;;;;227.55;89.28;;;;;;;-7.06;70.72;96865.37;1748641;80;25853;-81
2020/12/03 07:30:47;;;;;;;217.22;85.97;;;;;;;-6.98;70.75;96872.17;1735848;80;25820;-81
2020/12/03 07:33:29;;;;;;;230.03;92.12;;;;;;;-6.96;70.80;96868.95;1748694;80;27492;-81
2020/12/03 07:36:20;;;;;;;227.75;89.87;;;;;;;-6.89;70.84;96871.13;1748785;80;26805;-81
2020/12/03 07:39:07;;;;;;;227.87;87.50;;;;;;;-6.80;70.92;96865.17;1731502;80;25864;-81
2020/12/03 07:41:39;;;;;;;225.18;92.60;;;;;;;-6.76;70.89;96870.55;1748623;81;26643;-84
2020/12/03 07:44:30;;;;;;;251.40;99.28;;;;;;;-6.67;70.91;96878.55;1747182;81;25342;-84
2020/12/03 07:47:30;;;;;;;262.82;104.38;;;;;;;-6.59;71.00;96866.13;1748523;80;27560;-83
2020/12/03 07:49:56;;;;;;;253.85;99.75;;;;;;;-6.50;70.96;96864.09;1748147;80;25753;-83
2020/12/03 07:52:32;;;;;;;250.28;99.92;;;;;;;-6.43;70.93;96852.17;1748693;80;25733;-84
2020/12/03 07:55:25;;;;;;;265.18;103.38;;;;;;;-6.39;70.90;96851.43;1746178;80;26435;-81
2020/12/03 07:57:59;;;;;;;252.90;99.83;;;;;;;-6.33;70.91;96853.59;1740752;80;25714;-82
2020/12/03 08:00:49;;;;;;;259.40;100.47;;;;;;;-6.28;70.97;96856.20;1757486;80;28728;-82
2020/12/03 08:03:42;;;;;;;253.35;96.80;;;;;;;-6.27;71.01;96855.23;1743804;80;25665;-83
2020/12/03 08:06:22;;;;;;;273.07;108.63;;;;;;;-6.21;71.07;96860.50;1743827;80;25735;-82
2020/12/03 08:09:03;;;;;;;261.77;107.20;;;;;;;-6.15;71.08;96876.24;1743980;81;25955;-82
2020/12/03 08:11:51;;;;;;;265.20;104.05;;;;;;;-6.12;71.12;96871.59;1744236;81;25842;-82
2020/12/03 08:14:35;;;;;;;254.07;104.50;;;;;;;-6.04;71.21;96849.50;1743830;81;27482;-81
2020/12/03 08:17:26;;;;;;;264.95;108.95;;;;;;;-5.95;71.19;96845.29;1743742;81;25893;-83
2020/12/03 08:20:16;;;;;;;265.87;103.38;;;;;;;-5.88;71.25;96841.20;1756176;80;25840;-83
2020/12/03 08:22:51;;;;;;;263.40;111.35;;;;;;;-5.79;71.43;96854.87;1758310;80;25811;-84
2020/12/03 08:25:28;;;;;;;250.65;105.15;;;;;;;-5.74;71.54;96847.94;1730808;80;25678;-81
2020/12/03 08:28:01;;;;;;;228.55;98.65;;;;;;;-5.65;71.69;96851.95;1748134;80;27486;-85
2020/12/03 08:30:38;;;;;;;210.50;93.72;;;;;;;-5.53;71.85;96847.02;1743678;81;26250;-84
2020/12/03 08:33:11;;;;;;;215.20;89.58;;;;;;;-5.39;71.94;96836.67;1743745;81;25938;-84
2020/12/03 08:35:41;;;;;;;226.73;91.12;;;;;;;-5.27;71.90;96844.86;1743737;81;25822;-83
2020/12/03 08:38:09;;;;;;;214.95;92.22;;;;;;;-5.17;71.79;96846.24;1743809;81;26357;-83
2020/12/03 08:40:38;;;;;;;222.40;94.22;;;;;;;-5.00;72.05;96841.73;1743787;81;27539;-83
2020/12/03 08:43:10;;;;;;;217.25;93.70;;;;;;;-4.80;72.08;96832.13;1712952;81;26181;-85
2020/12/03 08:45:48;;;;;;;214.40;88.37;;;;;;;-4.67;71.93;96818.75;1744046;81;25813;-83
2020/12/03 08:48:21;;;;;;;202.93;89.77;;;;;;;-4.57;71.86;96830.16;1743779;81;25926;-85
2020/12/03 08:51:05;;;;;;;207.12;91.72;;;;;;;-4.44;71.85;96822.38;1712906;82;26154;-83
2020/12/03 08:53:34;;;;;;;217.10;91.60;;;;;;;-4.34;71.69;96813.19;1743764;81;27518;-85
2020/12/03 08:56:19;;;;;;;216.82;91.00;;;;;;;-4.20;71.67;96807.55;1743702;81;26290;-83
2020/12/03 08:59:00;;;;;;;197.93;86.30;;;;;;;-4.09;71.62;96814.51;1743796;81;26409;-84
2020/12/03 09:04:19;;;;;;;203.52;86.92;;;;;;;-3.84;71.53;96796.03;1868589;76;34745;-84
2020/12/03 09:06:50;;;;;;;206.17;85.92;;;;;;;-3.82;71.50;96802.00;1805540;77;25741;-83
2020/12/03 09:09:21;;;;;;;152.22;67.35;;;;;;;-3.73;71.50;96794.58;1820938;77;27556;-84
2020/12/03 09:11:49;;;;;;;184.35;83.65;;;;;;;-3.64;71.46;96789.33;1839045;77;25751;-84
2020/12/03 09:14:39;;;;;;;168.57;76.95;;;;;;;-3.57;71.46;96783.00;1823337;77;25667;-83
2020/12/03 09:17:09;;;;;;;176.78;78.07;;;;;;;-3.49;71.37;96783.13;1836550;77;25820;-84
2020/12/03 09:19:38;;;;;;;169.40;77.75;;;;;;;-3.42;71.34;96790.02;1842607;77;25796;-83
2020/12/03 09:22:08;;;;;;;171.35;80.40;;;;;;;-3.33;71.46;96791.31;1818852;77;28957;-84
2020/12/03 09:24:36;;;;;;;195.18;87.05;;;;;;;-3.24;71.43;96787.48;1817547;77;25315;-85
2020/12/03 09:27:06;;;;;;;278.20;105.85;;;;;;;-3.15;71.40;96777.41;1796347;77;25777;-85
2020/12/03 09:29:36;;;;;;;189.13;82.65;;;;;;;-3.08;71.36;96772.73;1812028;77;26380;-83
2020/12/03 09:32:07;;;;;;;172.57;79.65;;;;;;;-3.01;71.36;96772.98;1829707;77;25942;-85
2020/12/03 09:34:37;;;;;;;172.95;81.20;;;;;;;-2.94;71.33;96776.24;1852473;76;26483;-84
2020/12/03 09:37:05;;;;;;;168.78;76.33;;;;;;;-2.88;71.19;96771.34;1802967;77;25885;-84
2020/12/03 09:39:35;;;;;;;178.75;81.42;;;;;;;-2.84;71.17;96768.28;1778203;79;25747;-85
2020/12/03 09:42:05;;;;;;;183.42;83.25;;;;;;;-2.80;71.15;96765.71;1812024;77;25673;-84
2020/12/03 09:44:35;;;;;;;181.63;83.60;;;;;;;-2.75;71.09;96761.30;1809177;77;26166;-83
2020/12/03 09:47:08;;;;;;;200.82;91.97;;;;;;;-2.68;71.22;96746.06;1842278;77;27494;-85
2020/12/03 09:49:39;;;;;;;199.25;91.85;;;;;;;-2.59;71.10;96745.18;1818595;77;25795;-83
2020/12/03 09:52:08;;;;;;;205.50;88.40;;;;;;;-2.50;70.97;96747.91;1808776;77;25746;-85
2020/12/03 09:54:36;;;;;;;195.25;90.05;;;;;;;-2.46;70.99;96732.12;1840514;77;25638;-84
2020/12/03 09:57:06;;;;;;;213.45;93.78;;;;;;;-2.42;70.99;96724.25;1818805;77;25794;-84
2020/12/03 09:59:33;;;;;;;205.90;95.20;;;;;;;-2.34;71.04;96724.33;1828287;77;27495;-86
2020/12/03 10:02:15;;;;;;;211.43;96.17;;;;;;;-2.27;71.01;96717.45;1852224;77;26162;-86
2020/12/03 10:05:13;;;;;;;210.75;96.57;;;;;;;-2.17;71.08;96718.73;1842177;77;25694;-86
2020/12/03 10:08:36;;;;;;;237.72;110.20;;;;;;;-2.07;71.07;96715.53;1818707;76;25689;-85
2020/12/03 10:11:30;;;;;;;228.52;106.80;;;;;;;-1.93;71.04;96705.23;1821850;77;25679;-85
2020/12/03 10:14:50;;;;;;;208.17;97.42;;;;;;;-1.81;70.92;96698.73;1847752;77;27494;-85
2020/12/03 10:17:19;;;;;;;177.50;81.67;;;;;;;-1.69;70.79;96693.23;1844566;76;25780;-85
2020/12/03 10:19:50;;;;;;;181.95;80.00;;;;;;;-1.59;70.54;96696.62;1835768;77;25789;-83
2020/12/03 10:22:41;;;;;;;188.50;82.90;;;;;;;-1.55;70.31;96704.09;1818125;77;25388;-83
2020/12/03 10:25:18;;;;;;;187.27;86.80;;;;;;;-1.52;70.12;96712.22;1827838;77;25825;-83
2020/12/03 10:28:20;;;;;;;233.23;105.22;;;;;;;-1.49;70.06;96714.56;1828129;77;28482;-83
2020/12/03 10:30:49;;;;;;;261.27;114.20;;;;;;;-1.40;69.97;96719.42;1836271;77;25750;-82
2020/12/03 10:33:17;;;;;;;268.82;123.28;;;;;;;-1.32;69.92;96722.95;1809304;77;25705;-82
2020/12/03 10:35:48;;;;;;;265.57;118.37;;;;;;;-1.26;69.93;96714.41;1806707;77;25776;-82
2020/12/03 10:38:32;;;;;;;317.90;128.82;;;;;;;-1.21;69.97;96710.78;1818174;77;25704;-83
2020/12/03 10:41:01;;;;;;;344.35;133.00;;;;;;;-1.16;69.93;96709.84;1832856;77;27438;-83
2020/12/03 10:43:40;;;;;;;258.32;107.37;;;;;;;-1.10;69.99;96711.88;1822340;77;25336;-82
2020/12/03 10:46:13;;;;;;;196.63;92.57;;;;;;;-1.09;69.90;96704.24;1805682;77;25724;-82
2020/12/03 10:48:46;;;;;;;182.65;90.07;;;;;;;-1.03;69.87;96707.27;1811192;77;26146;-82
2020/12/03 10:51:17;;;;;;;177.78;87.22;;;;;;;-0.99;69.70;96705.98;1808232;77;25867;-82
2020/12/03 10:53:47;;;;;;;180.78;82.37;;;;;;;-1.00;69.78;96707.80;1813855;77;26903;-82
2020/12/03 10:56:16;;;;;;;174.37;84.50;;;;;;;-0.93;69.92;96696.89;1818366;77;25774;-82
2020/12/03 10:58:52;;;;;;;186.28;83.85;;;;;;;-0.85;69.95;96698.77;1818246;77;25638;-82
2020/12/03 11:01:28;;;;;;;191.77;89.22;;;;;;;-0.81;69.95;96685.03;1817910;77;25812;-82
2020/12/03 11:04:05;;;;;;;207.72;89.40;;;;;;;-0.76;70.02;96684.57;1813011;77;25786;-82
2020/12/03 11:06:34;;;;;;;247.88;108.22;;;;;;;-0.69;70.00;96696.19;1821762;77;27519;-82
2020/12/03 11:09:05;;;;;;;288.02;122.17;;;;;;;-0.67;69.85;96688.08;1819782;77;25771;-82
2020/12/03 11:11:36;;;;;;;272.40;121.20;;;;;;;-0.66;69.75;96691.91;1835306;77;25724;-83
2020/12/03 11:14:14;;;;;;;274.98;118.67;;;;;;;-0.65;69.65;96688.76;1820809;77;26498;-82
2020/12/03 11:17:01;;;;;;;279.25;124.22;;;;;;;-0.67;69.67;96688.91;1820795;77;25751;-83
2020/12/03 11:19:33;;;;;;;233.57;103.83;;;;;;;-0.65;69.74;96678.16;1810473;77;27454;-83
2020/12/03 11:22:31;;;;;;;242.03;104.95;;;;;;;-0.61;69.76;96666.25;1809629;78;25706;-83
2020/12/03 11:25:08;;;;;;;227.13;100.45;;;;;;;-0.58;69.85;96668.56;1817937;77;25878;-83
2020/12/03 11:27:44;;;;;;;211.60;94.87;;;;;;;-0.54;69.86;96660.14;1821766;77;26225;-83
2020/12/03 11:30:20;;;;;;;216.40;94.87;;;;;;;-0.49;69.87;96652.55;1809587;77;25790;-83
2020/12/03 11:32:53;;;;;;;198.07;86.95;;;;;;;-0.41;69.93;96651.23;1809543;77;27482;-83
2020/12/03 11:35:24;;;;;;;181.60;80.17;;;;;;;-0.39;69.93;96647.93;1816604;77;25648;-83
2020/12/03 11:37:57;;;;;;;163.32;73.85;;;;;;;-0.31;69.95;96648.93;1817236;77;25769;-83
2020/12/03 11:40:32;;;;;;;179.55;79.10;;;;;;;-0.25;69.87;96647.80;1802891;77;25770;-83
2020/12/03 11:43:11;;;;;;;176.02;79.90;;;;;;;-0.23;69.77;96643.62;1801662;77;25670;-83
2020/12/03 11:48:37;;;;;;;157.25;73.02;;;;;;;-0.14;69.66;96644.00;1809503;77;25723;-82
2020/12/03 11:51:04;;;;;;;157.15;72.27;;;;;;;-0.11;69.53;96650.28;1825957;77;25700;-83
2020/12/03 11:53:32;;;;;;;144.80;66.35;;;;;;;-0.09;69.48;96660.24;1815885;77;25766;-82
2020/12/03 11:56:00;;;;;;;135.85;62.45;;;;;;;-0.05;69.52;96660.27;1809507;77;25822;-83